Latest Weather Observations for Stawell

IDV60801

Issued at 4:32 am EDT Sunday 26 February 2017 (issued every 30 minutes, with the page automatically refreshed every 10 minutes)

About weather observations | Map of weather stations | Latest weather observations for VIC | Other Formats
Station Details ID: 079105 Name: STAWELL AERODROME Lat: -37.07 Lon: 142.74 Height: 235.36 m
Data from the previous 72 hours. | See also: Recent months at Stawell
Date/Time
EDT
Temp
°C
App
Temp
°C
Dew
Point
°C
Rel
Hum
%
Delta-T
°C
Wind Press
QNH
hPa
Press
MSL
hPa
Rain since
9am
mm
Dir  Spd
km/h
Gust
km/h
Spd
kts
Gust
kts
26/04:30am 13.2 10.7 10.9 86 1.2 S 15 22 8 12 1019.4 1018.6 0.0
26/04:00am 13.3 11.5 11.0 86 1.2 S 11 19 6 10 1019.8 1019.0 0.0
26/03:30am 13.6 11.5 11.3 86 1.2 S 13 20 7 11 1020.1 1019.2 0.0
26/03:00am 13.4 10.5 11.1 86 1.2 S 17 26 9 14 1020.3 1019.4 0.0
26/02:30am 12.8 10.2 10.7 87 1.1 S 15 24 8 13 1020.5 1019.6 0.0
26/02:00am 12.1 9.8 10.5 90 0.8 S 13 22 7 12 1021.0 1020.1 0.0
26/01:30am 12.0 8.9 10.2 89 0.9 S 17 28 9 15 1021.4 1020.5 0.0
26/01:00am 11.9 8.3 10.0 88 1.0 S 19 28 10 15 1021.6 1020.7 0.0
26/12:30am 12.1 7.5 9.7 85 1.2 S 24 33 13 18 1021.8 1020.9 0.0
26/12:00am 12.4 8.2 9.8 84 1.3 S 22 33 12 18 1022.1 1021.2 0.0
 
Date/Time
EDT
Temp
°C
App
Temp
°C
Dew
Point
°C
Rel
Hum
%
Delta-T
°C
Wind Press
QNH
hPa
Press
MSL
hPa
Rain since
9am
mm
Dir  Spd
km/h
Gust
km/h
Spd
kts
Gust
kts
25/11:30pm 12.7 8.5 9.9 83 1.5 S 22 32 12 17 1022.2 1021.4 0.0
25/11:00pm 12.8 9.1 9.6 81 1.6 S 19 32 10 17 1022.4 1021.6 0.0
25/10:30pm 13.1 9.2 9.4 78 1.9 S 20 28 11 15 1022.3 1021.5 0.0
25/10:00pm 13.8 7.5 9.0 73 2.5 S 32 41 17 22 1022.3 1021.5 0.0
25/09:31pm 14.4 8.7 8.4 67 3.1 S 28 48 15 26 1022.0 1021.1 0.0
25/09:30pm 14.3 8.9 8.0 66 3.2 S 26 43 14 23 1022.1 1021.2 0.0
25/09:00pm 15.1 9.9 7.2 59 3.9 SSW 24 35 13 19 1021.8 1020.9 0.0
25/08:30pm 15.9 10.9 6.6 54 4.6 SSW 22 35 12 19 1021.6 1020.7 0.0
25/08:00pm 16.9 11.4 5.8 48 5.4 S 24 35 13 19 1021.4 1020.5 0.0
25/07:30pm 18.0 12.1 5.6 44 6.1 S 26 43 14 23 1021.2 1020.3 0.0
25/07:00pm 19.2 12.7 4.6 38 7.1 S 28 41 15 22 1021.0 1020.1 0.0
25/06:50pm 19.6 13.0 4.1 36 7.5 S 28 46 15 25 1021.1 1020.2 0.0
25/06:30pm 19.9 12.9 4.0 35 7.7 S 30 41 16 22 1020.9 1020.0 0.0
25/06:00pm 20.6 13.8 3.3 32 8.3 S 28 41 15 22 1020.9 1020.0 0.0
25/05:30pm 20.9 13.6 2.7 30 8.6 S 30 41 16 22 1021.1 1020.2 0.0
25/05:00pm 22.0 15.0 2.2 27 9.4 S 28 41 15 22 1021.2 1020.3 0.0
25/04:43pm 21.3 14.2 1.6 27 9.2 SSW 28 46 15 25 1021.2 1020.3 0.0
25/04:30pm 21.7 14.7 1.9 27 9.3 S 28 46 15 25 1021.3 1020.4 0.0
25/04:25pm 21.5 14.5 2.2 28 9.1 SSW 28 46 15 25 1021.3 1020.4 0.0
25/04:00pm 21.6 15.4 2.3 28 9.1 S 24 35 13 19 1021.5 1020.6 0.0
25/03:30pm 21.2 14.2 2.0 28 9.0 SSE 28 43 15 23 1021.6 1020.7 0.0
25/03:00pm 21.7 15.2 2.4 28 9.1 SSE 26 44 14 24 1021.9 1021.0 0.0
25/02:48pm 20.8 13.8 2.1 29 8.8 SSE 28 48 15 26 1022.1 1021.2 0.0
25/02:30pm 20.5 13.7 3.3 32 8.2 S 28 39 15 21 1022.3 1021.5 0.0
25/02:00pm 19.9 13.0 2.3 31 8.2 SSE 28 41 15 22 1022.6 1021.8 0.0
25/01:30pm 19.4 12.5 2.7 33 7.8 S 28 43 15 23 1023.0 1022.2 0.0
25/01:03pm 19.2 12.1 3.8 36 7.4 S 30 48 16 26 1023.3 1022.5 0.0
25/01:00pm 18.5 10.8 3.6 37 7.0 S 33 50 18 27 1023.4 1022.6 0.0
25/12:30pm 17.8 10.4 4.0 40 6.6 S 32 50 17 27 1023.9 1023.1 0.0
25/12:05pm 17.6 10.9 3.9 40 6.5 S 28 50 15 27 1023.9 1023.1 0.0
25/12:00pm 17.2 10.6 4.2 42 6.2 S 28 41 15 22 1023.9 1023.1 0.0
25/11:32am 16.9 9.6 4.6 44 5.9 SSE 32 50 17 27 1023.9 1023.1 0.0
25/11:30am 16.8 9.6 4.8 45 5.8 SSE 32 48 17 26 1023.8 1023.0 0.0
25/11:00am 15.6 8.4 5.2 50 5.0 S 32 48 17 26 1024.4 1023.5 0.0
25/10:30am 16.5 10.4 6.6 52 4.9 S 28 37 15 20 1024.6 1023.7 0.0
25/10:00am 14.4 7.4 6.7 60 3.8 S 33 52 18 28 1024.4 1023.5 0.0
25/09:37am 13.5 6.7 7.1 65 3.1 SSE 32 50 17 27 1024.5 1023.6 0.0
25/09:30am 13.6 7.2 6.9 64 3.3 SSE 30 46 16 25 1024.2 1023.4 0.0
25/09:00am 13.0 7.5 7.5 69 2.7 SSE 26 43 14 23 1024.4 1023.5 0.0
25/08:30am 12.5 6.5 7.2 70 2.6 SSE 28 39 15 21 1023.8 1023.0 0.0
25/08:00am 11.9 5.1 7.0 72 2.4 SSE 32 44 17 24 1024.0 1023.2 0.0
25/07:34am 11.6 5.6 6.9 73 2.3 SSE 28 46 15 25 1023.9 1023.1 0.0
25/07:30am 11.6 6.0 7.1 74 2.2 SSE 26 39 14 21 1023.9 1023.1 0.0
25/07:00am 11.4 6.3 7.5 77 1.9 SSE 24 35 13 19 1023.8 1023.0 0.0
25/06:30am 11.3 6.1 7.4 77 1.9 SSE 24 35 13 19 1023.7 1022.9 0.0
25/06:00am 11.3 6.2 7.6 78 1.8 SSE 24 39 13 21 1023.4 1022.6 0.0
25/05:30am 11.5 5.7 8.0 79 1.7 S 28 39 15 21 1023.2 1022.4 0.0
25/05:00am 11.8 6.4 8.1 78 1.8 SSE 26 35 14 19 1023.1 1022.3 0.0
25/04:30am 11.8 6.1 8.3 79 1.7 S 28 41 15 22 1023.3 1022.5 0.0
25/04:00am 11.9 6.9 8.0 77 1.9 S 24 35 13 19 1023.4 1022.6 0.0
25/03:30am 12.2 6.9 8.3 77 1.9 S 26 37 14 20 1023.6 1022.8 0.0
25/03:00am 12.4 8.0 8.9 79 1.8 SSE 22 33 12 18 1023.9 1023.1 0.0
25/02:30am 12.6 7.9 9.2 80 1.7 S 24 33 13 18 1024.1 1023.3 0.0
25/02:00am 12.7 7.6 9.2 79 1.8 S 26 35 14 19 1024.5 1023.6 0.0
25/01:30am 12.8 8.1 9.3 79 1.8 S 24 33 13 18 1024.7 1023.8 0.0
25/01:00am 12.7 8.0 9.3 80 1.7 S 24 39 13 21 1024.9 1024.0 0.0
25/12:30am 13.0 7.9 9.1 77 2.0 S 26 35 14 19 1024.9 1024.0 0.0
25/12:00am 13.2 8.7 8.7 74 2.3 S 22 30 12 16 1025.1 1024.2 0.0
 
Date/Time
EDT
Temp
°C
App
Temp
°C
Dew
Point
°C
Rel
Hum
%
Delta-T
°C
Wind Press
QNH
hPa
Press
MSL
hPa
Rain since
9am
mm
Dir  Spd
km/h
Gust
km/h
Spd
kts
Gust
kts
24/11:30pm 13.6 9.3 8.0 69 2.8 S 20 28 11 15 1025.3 1024.4 0.0
24/11:00pm 14.3 10.0 8.0 66 3.2 S 20 30 11 16 1025.3 1024.4 0.0
24/10:30pm 15.0 10.8 7.5 61 3.8 S 19 28 10 15 1025.2 1024.3 0.0
24/10:00pm 15.2 10.6 6.7 57 4.2 S 20 30 11 16 1025.3 1024.4 0.0
24/09:30pm 15.6 10.2 6.3 54 4.6 SSE 24 32 13 17 1025.2 1024.3 0.0
24/09:00pm 16.1 11.1 6.3 52 4.8 SSE 22 35 12 19 1025.0 1024.1 0.0
24/08:30pm 16.7 12.0 6.2 50 5.2 SSE 20 32 11 17 1024.7 1023.8 0.0
24/08:00pm 17.4 12.4 6.3 48 5.5 S 22 33 12 18 1024.5 1023.6 0.0
24/07:30pm 18.4 13.1 6.6 46 5.9 S 24 35 13 19 1024.2 1023.4 0.0
24/07:00pm 18.8 12.6 6.3 44 6.2 S 28 39 15 21 1024.0 1023.2 0.0
24/06:30pm 18.9 12.4 6.7 45 6.2 S 30 41 16 22 1024.1 1023.3 0.0
24/06:00pm 19.5 13.1 6.9 44 6.4 S 30 44 16 24 1023.8 1023.0 0.0
24/05:30pm 20.8 14.7 6.7 40 7.2 S 28 39 15 21 1023.5 1022.7 0.0
24/05:07pm 21.3 15.1 6.0 37 7.8 S 28 46 15 25 1023.4 1022.6 0.0
24/05:00pm 21.6 15.4 6.3 37 7.8 S 28 41 15 22 1023.5 1022.7 0.0
24/04:30pm 21.4 14.8 6.1 37 7.8 S 30 44 16 24 1023.5 1022.7 0.0
24/04:00pm 21.5 14.9 6.2 37 7.8 S 30 43 16 23 1023.4 1022.6 0.0
24/03:59pm 21.5 14.9 6.2 37 7.8 S 30 48 16 26 1023.5 1022.7 0.0
24/03:30pm 22.0 15.9 6.7 37 7.9 S 28 41 15 22 1023.6 1022.8 0.0
24/03:00pm 21.9 16.2 6.6 37 7.8 S 26 41 14 22 1023.9 1023.1 0.0
24/02:30pm 20.8 14.6 6.0 38 7.5 S 28 43 15 23 1024.2 1023.4 0.0
24/02:00pm 20.2 14.1 6.5 41 6.9 S 28 43 15 23 1024.5 1023.6 0.0
24/01:30pm 19.7 13.2 6.4 42 6.7 S 30 44 16 24 1024.5 1023.6 0.0
24/01:00pm 20.0 13.9 6.4 41 6.9 SSE 28 41 15 22 1024.7 1023.8 0.0
24/12:30pm 19.1 13.1 6.9 45 6.2 S 28 37 15 20 1025.1 1024.2 0.0
24/12:00pm 18.3 12.6 6.5 46 5.9 S 26 39 14 21 1025.1 1024.2 0.0
24/11:30am 17.7 11.5 6.3 47 5.7 S 28 41 15 22 1025.2 1024.3 0.0
24/11:00am 17.3 10.4 6.5 49 5.4 S 32 43 17 23 1025.3 1024.4 0.0
24/10:30am 16.5 10.3 6.3 51 5.0 SSE 28 37 15 20 1025.2 1024.3 0.0
24/10:00am 15.7 10.3 6.2 53 4.6 S 24 35 13 19 1025.2 1024.3 0.0
24/09:30am 15.2 9.5 6.5 56 4.3 S 26 35 14 19 1025.0 1024.1 0.0
24/09:00am 14.5 9.5 6.6 59 3.9 S 22 35 12 19 1024.9 1024.0 0.0
24/08:30am 14.0 9.8 7.5 65 3.2 S 19 28 10 15 1024.6 1023.7 0.0
24/08:00am 13.3 8.6 7.7 69 2.8 S 22 35 12 19 1024.2 1023.4 0.0
24/07:30am 13.1 9.2 8.8 75 2.2 S 19 28 10 15 1023.7 1022.9 0.0
24/07:00am 13.3 9.2 8.6 73 2.4 S 20 33 11 18 1023.5 1022.7 0.0
24/06:30am 13.3 10.0 9.7 79 1.9 SSE 17 24 9 13 1023.1 1022.3 0.0
24/06:00am 13.5 9.8 9.6 77 2.0 S 19 26 10 14 1022.9 1022.1 0.0
24/05:30am 13.4 10.3 10.4 82 1.6 S 17 22 9 12 1022.7 1021.9 0.0
24/05:00am 13.9 11.4 11.1 83 1.5 S 15 20 8 11 1022.4 1021.6 0.0
24/04:30am 13.6 11.1 11.1 85 1.3 SSE 15 26 8 14 1022.4 1021.6 0.0
24/04:00am 13.8 10.5 11.0 83 1.5 S 19 24 10 13 1022.4 1021.6 0.0
24/03:30am 13.9 11.0 11.1 83 1.5 S 17 28 9 15 1022.4 1021.6 0.0
24/03:00am 14.1 11.2 10.9 81 1.7 S 17 28 9 15 1022.5 1021.7 0.0
24/02:30am 14.0 11.2 11.3 84 1.5 S 17 28 9 15 1022.8 1022.0 0.0
24/02:00am 14.3 11.0 11.6 84 1.5 S 20 28 11 15 1023.0 1022.2 0.0
24/01:30am 14.4 11.3 11.7 84 1.5 S 19 32 10 17 1023.0 1022.2 0.0
24/01:00am 14.7 11.6 11.7 82 1.6 S 19 26 10 14 1022.8 1022.0 0.0
24/12:30am 14.7 10.7 11.8 83 1.6 S 24 33 13 18 1022.7 1021.9 0.0
24/12:00am 15.3 12.2 12.2 82 1.7 S 20 32 11 17 1022.6 1021.8 0.0
 
Date/Time
EDT
Temp
°C
App
Temp
°C
Dew
Point
°C
Rel
Hum
%
Delta-T
°C
Wind Press
QNH
hPa
Press
MSL
hPa
Rain since
9am
mm
Dir  Spd
km/h
Gust
km/h
Spd
kts
Gust
kts
23/11:30pm 15.8 12.8 12.5 81 1.8 S 20 30 11 16 1022.7 1021.9 0.0
23/11:00pm 16.0 13.0 12.6 80 1.9 S 20 35 11 19 1022.5 1021.7 0.0
23/10:30pm 16.4 14.0 12.8 79 2.0 SSE 17 26 9 14 1022.2 1021.4 0.0
23/10:00pm 16.9 14.0 12.8 77 2.3 SSE 20 33 11 18 1021.9 1021.0 0.0
23/09:30pm 17.6 13.5 12.7 73 2.8 S 26 37 14 20 1021.4 1020.5 0.0
23/09:00pm 18.9 15.1 12.4 66 3.7 S 24 35 13 19 1020.9 1020.0 0.0
23/08:30pm 21.3 18.3 10.5 50 6.0 S 17 30 9 16 1020.3 1019.4 0.0
23/08:00pm 22.5 19.3 10.0 45 6.9 S 17 26 9 14 1019.7 1018.9 0.0
23/07:30pm 24.0 21.7 10.3 42 7.6 SW 13 22 7 12 1019.2 1018.4 0.0
23/07:00pm 25.0 22.6 10.1 39 8.3 SW 13 20 7 11 1019.0 1018.2 0.0
23/06:30pm 25.9 23.6 10.5 38 8.7 WSW 13 19 7 10 1018.8 1018.0 0.0
23/06:00pm 25.8 23.0 10.0 37 8.8 WSW 15 28 8 15 1018.5 1017.7 0.0
23/05:30pm 26.1 23.4 10.3 37 8.9 SW 15 24 8 13 1018.4 1017.6 0.0
23/05:00pm 26.0 23.0 9.4 35 9.2 WSW 15 22 8 12 1018.3 1017.4 0.0
23/04:30pm 26.4 23.8 9.3 34 9.5 WSW 13 26 7 14 1018.1 1017.2 0.0
23/04:00pm 26.5 24.4 9.8 35 9.3 W 11 19 6 10 1018.2 1017.3 0.0
23/03:30pm 25.4 23.3 9.7 37 8.7 WSW 11 22 6 12 1018.2 1017.3 0.0
23/03:00pm 25.1 22.7 10.2 39 8.3 SSW 13 26 7 14 1018.4 1017.6 0.0
23/02:30pm 24.6 22.6 10.1 40 8.1 WNW 11 17 6 9 1018.4 1017.6 0.0
23/02:00pm 24.0 21.6 9.9 41 7.8 W 13 22 7 12 1018.4 1017.6 0.0
23/01:30pm 24.0 22.0 10.3 42 7.6 WSW 11 20 6 11 1018.6 1017.8 0.0
23/01:00pm 23.1 20.7 10.2 44 7.1 W 13 26 7 14 1018.7 1017.9 0.0
23/12:30pm 22.2 20.3 10.4 47 6.5 SW 11 17 6 9 1018.7 1017.9 0.0
23/12:00pm 21.9 20.1 11.0 50 6.1 SSE 11 17 6 9 1018.6 1017.8 0.0
23/11:30am 20.9 19.6 11.3 54 5.4 WSW 9 19 5 10 1018.8 1018.0 0.0
23/11:00am 20.3 18.2 11.2 56 5.0 SW 13 19 7 10 1018.8 1018.0 0.0
23/10:30am 19.5 17.5 11.5 60 4.5 WSW 13 20 7 11 1018.6 1017.8 0.0
23/10:00am 18.5 17.0 11.8 65 3.7 W 11 17 6 9 1018.2 1017.3 0.0
23/09:30am 18.9 16.6 11.7 63 4.0 SW 15 22 8 12 1017.8 1016.9 0.0
23/09:00am 18.0 16.5 11.8 67 3.4 WSW 11 19 6 10 1017.5 1016.6 0.0
23/08:30am 17.9 16.5 12.1 69 3.2 WSW 11 19 6 10 1017.2 1016.3 0.0
23/08:00am 17.3 15.1 12.0 71 2.9 WSW 15 24 8 13 1016.5 1015.6 0.0
23/07:30am 16.5 15.0 11.9 74 2.5 WSW 11 17 6 9 1016.0 1015.1 0.0
23/07:00am 16.0 14.5 11.8 76 2.3 W 11 20 6 11 1015.3 1014.5 0.0
23/06:30am 16.2 12.9 11.6 74 2.5 W 20 32 11 17 1014.8 1014.0 0.0
23/06:00am 16.4 13.5 11.1 71 2.9 W 17 30 9 16 1014.4 1013.5 0.0
23/05:30am 16.1 14.0 11.1 72 2.7 WNW 13 19 7 10 1014.3 1013.4 0.0
23/05:00am 16.5 14.3 10.8 69 3.1 W 13 26 7 14 1014.1 1013.2 0.0

Other Formats:

Comma delimited format used in spreadsheet applications
http://www.bom.gov.au/fwo/IDV60801/IDV60801.94836.axf

JavaScript Object Notation format (JSON) in row-major order
http://www.bom.gov.au/fwo/IDV60801/IDV60801.94836.json